createdAt,value
2022-12-01T00:01:41.637Z,6.00
2022-12-01T00:04:10.063Z,6.00
2022-12-01T00:06:38.389Z,5.90
2022-12-01T00:09:25.598Z,5.90
2022-12-01T00:11:53.718Z,5.90
2022-12-01T00:14:21.878Z,5.90
2022-12-01T00:16:52.645Z,5.90
2022-12-01T00:19:21.022Z,5.90
2022-12-01T00:21:49.439Z,5.90
2022-12-01T00:24:19.062Z,5.90
2022-12-01T00:26:47.223Z,5.90
2022-12-01T00:29:21.277Z,6.00
2022-12-01T00:31:49.453Z,6.00
2022-12-01T00:34:23.608Z,6.00
2022-12-01T00:36:51.794Z,6.10
2022-12-01T00:39:24.406Z,6.10
2022-12-01T00:41:52.857Z,6.10
2022-12-01T00:44:23.473Z,6.20
2022-12-01T00:46:51.776Z,6.20
2022-12-01T00:49:22.327Z,6.20
2022-12-01T00:51:50.719Z,6.20
2022-12-01T00:54:20.420Z,6.20
2022-12-01T00:56:48.643Z,6.20
2022-12-01T00:59:17.015Z,6.30
2022-12-01T01:01:46.933Z,6.30
2022-12-01T01:04:15.203Z,6.30
2022-12-01T01:06:44.103Z,6.30
2022-12-01T01:09:12.684Z,6.30
2022-12-01T01:11:46.374Z,6.30
2022-12-01T01:14:16.698Z,6.30
2022-12-01T01:16:45.104Z,6.30
2022-12-01T01:19:13.499Z,6.30
2022-12-01T01:21:41.815Z,6.30
2022-12-01T01:24:11.478Z,6.30
2022-12-01T01:26:41.230Z,6.30
2022-12-01T01:29:10.192Z,6.30
2022-12-01T01:31:41.913Z,6.30
2022-12-01T01:34:10.233Z,6.30
2022-12-01T01:36:38.403Z,6.30
2022-12-01T01:39:06.732Z,6.20
2022-12-01T01:41:35.066Z,6.20
2022-12-01T01:44:21.105Z,6.20
2022-12-01T01:46:49.318Z,6.20
2022-12-01T01:49:20.338Z,6.10
2022-12-01T01:51:50.477Z,6.10
2022-12-01T01:54:20.675Z,6.10
2022-12-01T01:56:49.144Z,6.00
2022-12-01T01:59:21.202Z,6.00
2022-12-01T02:01:51.873Z,6.00
2022-12-01T02:04:23.173Z,6.00
2022-12-01T02:06:51.369Z,6.00
2022-12-01T02:09:22.127Z,6.00
2022-12-01T02:11:59.714Z,6.00
2022-12-01T02:14:52.256Z,6.10
2022-12-01T02:17:26.436Z,6.10
2022-12-01T02:20:12.666Z,6.20
2022-12-01T02:22:45.026Z,6.20
2022-12-01T02:25:27.339Z,6.20
2022-12-01T02:28:14.221Z,6.20
2022-12-01T02:30:48.983Z,6.20
2022-12-01T02:33:23.868Z,6.20
2022-12-01T02:35:57.024Z,6.20
2022-12-01T02:38:29.790Z,6.20
2022-12-01T02:41:00.407Z,6.20
2022-12-01T02:43:33.390Z,6.20
2022-12-01T02:46:06.083Z,6.20
2022-12-01T02:48:35.347Z,6.10
2022-12-01T02:51:06.278Z,6.20
2022-12-01T02:53:35.938Z,6.10
2022-12-01T02:56:07.575Z,6.10
2022-12-01T02:58:35.789Z,6.10
2022-12-01T03:01:12.431Z,6.10
2022-12-01T03:03:53.543Z,6.10
2022-12-01T03:06:25.966Z,6.00
2022-12-01T03:08:58.649Z,6.00
2022-12-01T03:11:29.976Z,6.00
2022-12-01T03:14:07.860Z,6.00
2022-12-01T03:16:40.309Z,6.00
2022-12-01T03:19:09.507Z,5.90
2022-12-01T03:21:40.740Z,5.90
2022-12-01T03:24:16.513Z,5.90
2022-12-01T03:26:46.087Z,6.00
2022-12-01T03:29:16.276Z,6.00
2022-12-01T03:31:49.179Z,6.00
2022-12-01T03:34:24.103Z,6.00
2022-12-01T03:36:55.390Z,6.00
2022-12-01T03:39:25.196Z,6.00
2022-12-01T03:41:54.750Z,6.00
2022-12-01T03:44:27.105Z,6.00
2022-12-01T03:46:58.204Z,6.00
2022-12-01T03:49:26.956Z,6.00
2022-12-01T03:52:00.286Z,5.90
2022-12-01T03:54:35.070Z,6.00
2022-12-01T03:57:05.481Z,6.00
2022-12-01T03:59:35.690Z,6.00
2022-12-01T04:02:06.447Z,6.00
2022-12-01T04:04:37.780Z,6.10
2022-12-01T04:07:05.968Z,6.10
2022-12-01T04:09:34.340Z,6.10
2022-12-01T04:12:20.239Z,6.10
2022-12-01T04:14:50.020Z,6.10
2022-12-01T04:17:19.747Z,6.00
2022-12-01T04:19:48.306Z,6.10
2022-12-01T04:22:16.607Z,6.00
2022-12-01T04:24:44.793Z,6.00
2022-12-01T04:27:13.058Z,6.10
2022-12-01T04:29:44.104Z,6.00
2022-12-01T04:32:13.578Z,6.10
2022-12-01T04:34:44.907Z,6.10
2022-12-01T04:37:13.732Z,6.10
2022-12-01T04:39:43.255Z,6.10
2022-12-01T04:42:14.164Z,6.10
2022-12-01T04:44:42.580Z,6.10
2022-12-01T04:47:14.081Z,6.10
2022-12-01T04:49:45.519Z,6.20
2022-12-01T04:52:13.839Z,6.20
2022-12-01T04:54:42.081Z,6.20
2022-12-01T04:57:10.244Z,6.20
2022-12-01T04:59:49.592Z,6.20
2022-12-01T05:02:18.183Z,6.20
2022-12-01T05:04:50.840Z,6.20
2022-12-01T05:07:19.893Z,6.20
2022-12-01T05:10:19.101Z,6.20
2022-12-01T05:12:47.553Z,6.10
2022-12-01T05:15:15.822Z,6.10
2022-12-01T05:17:46.100Z,6.10
2022-12-01T05:20:40.328Z,6.10
2022-12-01T05:23:15.265Z,6.00
2022-12-01T05:25:50.515Z,6.00
2022-12-01T05:28:23.329Z,5.90
2022-12-01T05:30:52.718Z,5.90
2022-12-01T05:33:21.094Z,5.90
2022-12-01T05:35:56.296Z,5.90
2022-12-01T05:38:25.835Z,5.90
2022-12-01T05:40:56.106Z,5.90
2022-12-01T05:43:29.576Z,5.90
2022-12-01T05:46:03.639Z,5.90
2022-12-01T05:48:35.226Z,5.90
2022-12-01T05:51:18.386Z,5.90
2022-12-01T05:53:56.143Z,5.90
2022-12-01T05:56:30.578Z,6.00
2022-12-01T05:58:59.339Z,6.00
2022-12-01T06:01:30.000Z,6.00
2022-12-01T06:04:06.604Z,6.00
2022-12-01T06:06:38.315Z,6.00
2022-12-01T06:09:06.675Z,6.00
2022-12-01T06:11:38.512Z,6.00
2022-12-01T06:14:07.100Z,6.10
2022-12-01T06:16:37.969Z,6.10
2022-12-01T06:19:08.457Z,6.10
2022-12-01T06:21:45.748Z,6.10
2022-12-01T06:24:14.794Z,6.10
2022-12-01T06:26:43.329Z,6.10
2022-12-01T06:29:16.936Z,6.10
2022-12-01T06:31:45.363Z,6.20
2022-12-01T06:34:13.743Z,6.10
2022-12-01T06:36:43.392Z,6.10
2022-12-01T06:39:12.024Z,6.20
2022-12-01T06:41:43.442Z,6.20
2022-12-01T06:44:11.803Z,6.20
2022-12-01T06:46:40.116Z,6.20
2022-12-01T06:49:15.369Z,6.20
2022-12-01T06:51:45.501Z,6.20
2022-12-01T06:54:17.967Z,6.30
2022-12-01T06:56:51.356Z,6.30
2022-12-01T06:59:22.915Z,6.30
2022-12-01T07:01:51.720Z,6.30
2022-12-01T07:04:20.206Z,6.30
2022-12-01T07:06:55.344Z,6.40
2022-12-01T07:09:26.684Z,6.40
2022-12-01T07:11:54.895Z,6.40
2022-12-01T07:14:35.056Z,6.40
2022-12-01T07:17:03.458Z,6.50
2022-12-01T07:19:34.867Z,6.50
2022-12-01T07:22:04.999Z,6.50
2022-12-01T07:24:43.359Z,6.50
2022-12-01T07:27:14.496Z,6.50
2022-12-01T07:29:45.879Z,6.50
2022-12-01T07:32:16.751Z,6.50
2022-12-01T07:34:45.014Z,6.50
2022-12-01T07:37:16.049Z,6.50
2022-12-01T07:39:47.513Z,6.50
2022-12-01T07:42:15.930Z,6.50
2022-12-01T07:44:44.290Z,6.50
2022-12-01T07:47:18.158Z,6.60
2022-12-01T07:49:48.090Z,6.60
2022-12-01T07:52:21.292Z,6.60
2022-12-01T07:54:52.786Z,6.60
2022-12-01T07:57:21.038Z,6.70
2022-12-01T07:59:50.405Z,6.70
2022-12-01T08:02:18.802Z,6.70
2022-12-01T08:04:49.473Z,6.70
2022-12-01T08:07:19.105Z,6.80
2022-12-01T08:09:54.962Z,6.80
2022-12-01T08:12:23.093Z,6.80
2022-12-01T08:14:51.287Z,6.80
2022-12-01T08:17:19.427Z,6.90
2022-12-01T08:19:48.080Z,6.90
2022-12-01T08:22:20.970Z,6.90
2022-12-01T08:24:51.777Z,6.90
2022-12-01T08:27:19.896Z,6.90
2022-12-01T08:29:48.368Z,7.00
2022-12-01T08:32:20.328Z,7.00
2022-12-01T08:34:53.317Z,7.10
2022-12-01T08:37:26.037Z,7.10
2022-12-01T08:39:55.652Z,7.10
2022-12-01T08:42:27.561Z,7.20
2022-12-01T08:44:59.407Z,7.20
2022-12-01T08:47:29.245Z,7.10
2022-12-01T08:49:57.447Z,7.10
2022-12-01T08:52:34.553Z,7.20
2022-12-01T08:55:12.264Z,7.20
2022-12-01T08:57:40.735Z,7.20
2022-12-01T09:00:15.708Z,7.20
2022-12-01T09:02:45.487Z,7.20
2022-12-01T09:05:14.186Z,7.30
2022-12-01T09:08:08.256Z,7.30
2022-12-01T09:10:36.883Z,7.30
2022-12-01T09:13:08.400Z,7.30
2022-12-01T09:15:36.687Z,7.40
2022-12-01T09:18:04.981Z,7.40
2022-12-01T09:20:33.859Z,7.40
2022-12-01T09:25:45.975Z,7.40
2022-12-01T09:28:14.507Z,7.50
2022-12-01T09:30:45.310Z,7.90
2022-12-01T09:33:15.072Z,8.20
2022-12-01T09:35:46.153Z,8.50
2022-12-01T09:38:21.451Z,8.80
2022-12-01T09:40:49.782Z,9.00
2022-12-01T09:43:19.652Z,9.30
2022-12-01T09:46:04.217Z,9.60
2022-12-01T09:48:42.668Z,9.80
2022-12-01T09:51:14.144Z,10.10
2022-12-01T09:53:44.364Z,10.30
2022-12-01T09:56:19.997Z,10.50
2022-12-01T09:58:48.846Z,10.60
2022-12-01T10:01:25.821Z,10.80
2022-12-01T10:03:59.485Z,10.80
2022-12-01T10:06:36.013Z,11.00
2022-12-01T10:09:11.701Z,11.00
2022-12-01T10:11:46.333Z,11.00
2022-12-01T10:14:19.979Z,10.80
2022-12-01T10:17:05.767Z,10.50
2022-12-01T10:19:39.915Z,10.20
2022-12-01T10:23:00.341Z,10.00
2022-12-01T10:25:38.313Z,9.70
2022-12-01T10:28:13.943Z,9.50
2022-12-01T10:30:57.226Z,9.40
2022-12-01T10:33:38.973Z,9.30
2022-12-01T10:36:08.019Z,9.30
2022-12-01T10:38:48.838Z,9.20
2022-12-01T10:41:21.414Z,9.20
2022-12-01T10:43:54.325Z,9.20
2022-12-01T10:46:25.181Z,9.20
2022-12-01T10:48:54.957Z,9.20
2022-12-01T10:51:24.328Z,9.20
2022-12-01T10:53:59.792Z,9.30
2022-12-01T10:56:42.492Z,9.30
2022-12-01T10:59:31.982Z,9.40
2022-12-01T11:02:00.650Z,9.50
2022-12-01T11:04:45.405Z,9.60
2022-12-01T11:07:18.817Z,9.70
2022-12-01T11:09:52.924Z,9.80
2022-12-01T11:12:25.235Z,10.00
2022-12-01T11:14:55.635Z,10.20
2022-12-01T11:17:30.571Z,10.30
2022-12-01T11:19:59.009Z,10.40
2022-12-01T11:22:34.415Z,10.50
2022-12-01T11:25:04.913Z,10.50
2022-12-01T11:27:57.596Z,10.50
2022-12-01T11:30:34.505Z,10.40
2022-12-01T11:33:13.828Z,10.40
2022-12-01T11:35:43.857Z,10.30
2022-12-01T11:38:30.742Z,10.30
2022-12-01T11:41:12.082Z,10.40
2022-12-01T11:44:02.770Z,10.40
2022-12-01T11:46:55.834Z,10.50
2022-12-01T11:49:45.521Z,10.50
2022-12-01T11:52:21.566Z,10.50
2022-12-01T11:54:57.374Z,10.40
2022-12-01T11:57:34.074Z,10.30
2022-12-01T12:00:35.882Z,10.20
2022-12-01T12:03:33.763Z,10.00
2022-12-01T12:06:43.970Z,9.80
2022-12-01T12:09:45.099Z,9.80
2022-12-01T12:12:39.208Z,9.80
2022-12-01T12:15:21.062Z,10.00
2022-12-01T12:18:21.478Z,10.10
2022-12-01T12:21:09.450Z,10.40
2022-12-01T12:24:04.015Z,10.60
2022-12-01T12:26:50.618Z,10.90
2022-12-01T12:29:52.390Z,10.90
2022-12-01T12:32:37.559Z,11.00
2022-12-01T12:35:25.187Z,10.90
2022-12-01T12:38:10.928Z,10.80
2022-12-01T12:40:51.554Z,10.80
2022-12-01T12:43:40.545Z,10.80
2022-12-01T12:46:17.760Z,10.80
2022-12-01T12:49:20.199Z,10.80
2022-12-01T12:51:54.235Z,10.70
2022-12-01T12:55:05.870Z,10.70
2022-12-01T13:00:55.509Z,10.70
2022-12-01T13:03:34.354Z,10.70
2022-12-01T13:06:28.607Z,10.70
2022-12-01T13:09:15.116Z,10.70
2022-12-01T13:12:17.675Z,10.70
2022-12-01T13:15:27.053Z,10.70
2022-12-01T13:21:25.517Z,10.70
2022-12-01T13:24:25.659Z,10.60
2022-12-01T13:31:13.722Z,10.60
2022-12-01T13:37:54.209Z,10.60
2022-12-01T13:41:07.484Z,10.60
2022-12-01T13:44:53.523Z,10.50
2022-12-01T13:47:51.385Z,10.40
2022-12-01T13:51:16.669Z,10.40
2022-12-01T13:54:51.007Z,10.30
2022-12-01T14:04:19.085Z,10.30
2022-12-01T14:07:51.679Z,10.30
2022-12-01T14:11:28.482Z,10.30
2022-12-01T14:18:00.385Z,10.30
2022-12-01T14:21:35.870Z,10.40
2022-12-01T14:25:00.848Z,10.30
2022-12-01T14:31:49.495Z,9.80
2022-12-01T14:35:15.092Z,9.60
2022-12-01T14:38:20.561Z,9.50
2022-12-01T14:41:27.028Z,9.30
2022-12-01T14:47:26.577Z,9.00
2022-12-01T14:50:18.230Z,8.90
2022-12-01T14:53:06.650Z,8.80
2022-12-01T14:55:51.534Z,8.70
2022-12-01T14:58:30.937Z,8.70
2022-12-01T15:01:07.824Z,8.60
2022-12-01T15:03:46.861Z,8.60
2022-12-01T15:06:20.018Z,8.50
2022-12-01T15:09:10.636Z,8.50
2022-12-01T15:11:50.253Z,8.40
2022-12-01T15:14:40.347Z,8.30
2022-12-01T15:17:43.686Z,8.30
2022-12-01T15:20:34.928Z,8.20
2022-12-01T15:23:03.733Z,8.10
2022-12-01T15:25:37.170Z,8.00
2022-12-01T15:28:14.401Z,8.00
2022-12-01T15:31:16.705Z,7.90
2022-12-01T15:33:51.013Z,7.80
2022-12-01T15:36:29.957Z,7.80
2022-12-01T15:39:07.094Z,7.70
2022-12-01T15:41:39.125Z,7.70
2022-12-01T15:44:17.088Z,7.60
2022-12-01T15:46:52.042Z,7.60
2022-12-01T15:49:33.095Z,7.50
2022-12-01T15:52:27.620Z,7.50
2022-12-01T15:54:57.682Z,7.40
2022-12-01T15:57:27.031Z,7.40
2022-12-01T16:00:03.796Z,7.40
2022-12-01T16:02:56.385Z,7.30
2022-12-01T16:05:29.111Z,7.30
2022-12-01T16:08:16.527Z,7.20
2022-12-01T16:10:45.318Z,7.20
2022-12-01T16:13:39.601Z,7.10
2022-12-01T16:16:39.618Z,7.00
2022-12-01T16:19:25.803Z,7.00
2022-12-01T16:22:04.759Z,6.90
2022-12-01T16:24:35.258Z,6.90
2022-12-01T16:27:05.581Z,6.90
2022-12-01T16:29:37.666Z,6.90
2022-12-01T16:32:21.603Z,6.80
2022-12-01T16:34:53.981Z,6.80
2022-12-01T16:37:27.763Z,6.80
2022-12-01T16:39:56.155Z,6.80
2022-12-01T16:42:24.514Z,6.80
2022-12-01T16:44:53.202Z,6.90
2022-12-01T16:47:23.422Z,6.90
2022-12-01T16:49:51.861Z,6.90
2022-12-01T16:55:22.313Z,7.00
2022-12-01T16:57:50.734Z,7.00
2022-12-01T17:00:19.613Z,7.00
2022-12-01T17:02:47.976Z,6.90
2022-12-01T17:05:16.587Z,6.90
2022-12-01T17:07:45.080Z,6.90
2022-12-01T17:10:16.714Z,6.90
2022-12-01T17:12:49.174Z,6.90
2022-12-01T17:15:18.025Z,6.90
2022-12-01T17:17:49.655Z,6.90
2022-12-01T17:20:18.398Z,6.90
2022-12-01T17:22:46.899Z,6.90
2022-12-01T17:25:17.759Z,6.90
2022-12-01T17:27:46.327Z,6.80
2022-12-01T17:30:15.218Z,6.80
2022-12-01T17:32:46.662Z,6.80
2022-12-01T17:35:15.057Z,6.70
2022-12-01T17:37:54.802Z,6.70
2022-12-01T17:40:26.218Z,6.70
2022-12-01T17:42:54.515Z,6.60
2022-12-01T17:45:23.110Z,6.70
2022-12-01T17:47:53.668Z,6.60
2022-12-01T17:50:22.038Z,6.70
2022-12-01T17:52:50.340Z,6.70
2022-12-01T17:55:19.618Z,6.70
2022-12-01T17:58:05.969Z,6.70
2022-12-01T18:00:34.589Z,6.60
2022-12-01T18:03:18.200Z,6.60
2022-12-01T18:06:08.245Z,6.60
2022-12-01T18:08:39.900Z,6.70
2022-12-01T18:11:15.688Z,6.70
2022-12-01T18:13:46.539Z,6.70
2022-12-01T18:16:15.962Z,6.70
2022-12-01T18:18:49.247Z,6.70
2022-12-01T18:21:21.899Z,6.70
2022-12-01T18:23:54.139Z,6.80
2022-12-01T18:26:22.629Z,6.80
2022-12-01T18:29:06.326Z,6.80
2022-12-01T18:31:36.437Z,6.80
2022-12-01T18:34:07.251Z,6.80
2022-12-01T18:36:49.743Z,6.80
2022-12-01T18:39:28.587Z,6.80
2022-12-01T18:42:06.718Z,6.80
2022-12-01T18:44:50.551Z,6.80
2022-12-01T18:47:18.907Z,6.80
2022-12-01T18:49:47.164Z,6.80
2022-12-01T18:52:15.423Z,6.80
2022-12-01T18:54:43.943Z,6.80
2022-12-01T18:57:12.165Z,6.80
2022-12-01T18:59:50.786Z,6.80
2022-12-01T19:02:27.898Z,6.80
2022-12-01T19:04:56.296Z,6.80
2022-12-01T19:07:29.547Z,6.80
2022-12-01T19:10:01.186Z,6.80
2022-12-01T19:12:31.836Z,6.80
2022-12-01T19:15:03.795Z,6.90
2022-12-01T19:17:32.045Z,6.90
2022-12-01T19:20:00.320Z,6.90
2022-12-01T19:22:28.665Z,6.90
2022-12-01T19:24:57.873Z,6.90
2022-12-01T19:27:26.102Z,6.80
2022-12-01T19:29:54.629Z,6.80
2022-12-01T19:32:24.397Z,6.80
2022-12-01T19:34:55.457Z,6.80
2022-12-01T19:37:26.631Z,6.80
2022-12-01T19:39:54.843Z,6.70
2022-12-01T19:42:32.411Z,6.70
2022-12-01T19:45:06.757Z,6.60
2022-12-01T19:47:36.661Z,6.60
2022-12-01T19:50:05.368Z,6.60
2022-12-01T19:52:34.076Z,6.60
2022-12-01T19:55:12.611Z,6.70
2022-12-01T19:57:40.927Z,6.70
2022-12-01T20:00:10.527Z,6.70
2022-12-01T20:02:40.161Z,6.70
2022-12-01T20:05:12.348Z,6.70
2022-12-01T20:07:40.597Z,6.70
2022-12-01T20:10:14.394Z,6.70
2022-12-01T20:12:45.555Z,6.80
2022-12-01T20:15:15.771Z,6.80
2022-12-01T20:17:50.426Z,6.80
2022-12-01T20:20:20.782Z,6.80
2022-12-01T20:22:56.516Z,6.80
2022-12-01T20:25:36.554Z,6.80
2022-12-01T20:28:08.192Z,6.90
2022-12-01T20:30:41.069Z,6.80
2022-12-01T20:33:18.102Z,6.90
2022-12-01T20:35:46.280Z,6.90
2022-12-01T20:38:25.761Z,6.80
2022-12-01T20:41:03.256Z,6.90
2022-12-01T20:43:49.762Z,6.90
2022-12-01T20:46:23.985Z,6.90
2022-12-01T20:48:55.193Z,6.90
2022-12-01T20:51:23.702Z,6.90
2022-12-01T20:54:26.116Z,6.90
2022-12-01T20:56:49.811Z,6.90
2022-12-01T20:59:36.523Z,6.90
2022-12-01T21:02:07.664Z,6.90
2022-12-01T21:04:39.060Z,6.80
2022-12-01T21:07:07.632Z,6.90
2022-12-01T21:09:36.022Z,6.90
2022-12-01T21:12:23.881Z,6.90
2022-12-01T21:14:59.063Z,6.90
2022-12-01T21:17:33.123Z,6.90
2022-12-01T21:20:23.989Z,6.90
2022-12-01T21:22:58.097Z,6.80
2022-12-01T21:25:27.670Z,6.80
2022-12-01T21:27:57.453Z,6.80
2022-12-01T21:30:32.073Z,6.80
2022-12-01T21:33:11.299Z,6.80
2022-12-01T21:35:49.256Z,6.80
2022-12-01T21:38:21.744Z,6.80
2022-12-01T21:40:57.613Z,6.80
2022-12-01T21:43:26.299Z,6.80
2022-12-01T21:46:15.507Z,6.70
2022-12-01T21:48:44.125Z,6.70
2022-12-01T21:51:17.955Z,6.70
2022-12-01T21:53:46.352Z,6.70
2022-12-01T21:56:20.581Z,6.70
2022-12-01T21:58:51.964Z,6.70
2022-12-01T22:01:25.781Z,6.70
2022-12-01T22:04:01.669Z,6.70
2022-12-01T22:06:38.809Z,6.70
2022-12-01T22:09:16.058Z,6.70
2022-12-01T22:11:48.784Z,6.70
2022-12-01T22:14:18.289Z,6.70
2022-12-01T22:16:51.605Z,6.70
2022-12-01T22:19:32.503Z,6.70
2022-12-01T22:22:25.202Z,6.70
2022-12-01T22:24:54.121Z,6.60
2022-12-01T22:27:29.224Z,6.70
2022-12-01T22:29:59.250Z,6.60
2022-12-01T22:32:42.086Z,6.70
2022-12-01T22:35:34.177Z,6.70
2022-12-01T22:38:22.683Z,6.70
2022-12-01T22:40:56.821Z,6.70
2022-12-01T22:43:31.924Z,6.70
2022-12-01T22:46:17.191Z,6.60
2022-12-01T22:48:54.020Z,6.70
2022-12-01T22:51:27.581Z,6.60
2022-12-01T22:53:59.833Z,6.70
2022-12-01T22:56:33.507Z,6.70
2022-12-01T22:59:04.474Z,6.60
2022-12-01T23:01:33.986Z,6.60
2022-12-01T23:04:21.089Z,6.60
2022-12-01T23:06:57.961Z,6.60
2022-12-01T23:09:32.843Z,6.60
2022-12-01T23:12:03.143Z,6.60
2022-12-01T23:14:31.412Z,6.60
2022-12-01T23:17:06.580Z,6.60
2022-12-01T23:19:37.594Z,6.70
2022-12-01T23:22:05.787Z,6.70
2022-12-01T23:24:35.534Z,6.70
2022-12-01T23:27:03.887Z,6.60
2022-12-01T23:29:36.862Z,6.70
2022-12-01T23:32:05.552Z,6.70
2022-12-01T23:34:34.805Z,6.60
2022-12-01T23:37:03.254Z,6.70
2022-12-01T23:39:33.066Z,6.60
2022-12-01T23:42:02.745Z,6.60
2022-12-01T23:44:38.688Z,6.60
2022-12-01T23:47:10.342Z,6.60
2022-12-01T23:49:44.665Z,6.60
2022-12-01T23:52:14.216Z,6.60
2022-12-01T23:54:42.489Z,6.60
2022-12-01T23:57:18.691Z,6.60
2022-12-01T23:59:57.565Z,6.60
